createdAt,value
2022-11-12T00:04:32.128Z,66.1
2022-11-12T00:10:07.151Z,65.6
2022-11-12T00:15:42.771Z,65.2
2022-11-12T00:21:36.368Z,65
2022-11-12T00:27:12.743Z,64.3
2022-11-12T00:32:48.374Z,63.9
2022-11-12T00:38:24.069Z,63.6
2022-11-12T00:44:02.936Z,63.5
2022-11-12T00:49:38.504Z,63.5
2022-11-12T00:55:13.771Z,63.9
2022-11-12T01:00:48.858Z,63.7
2022-11-12T01:06:25.586Z,63.7
2022-11-12T01:12:01.090Z,63.6
2022-11-12T01:17:35.971Z,63.2
2022-11-12T01:23:11.350Z,63.1
2022-11-12T01:28:46.885Z,62.8
2022-11-12T01:34:23.214Z,62.6
2022-11-12T01:39:58.747Z,62.8
2022-11-12T01:45:33.906Z,63.2
2022-11-12T01:51:09.782Z,63.9
2022-11-12T01:56:46.191Z,63.9
2022-11-12T02:02:21.534Z,64
2022-11-12T02:07:56.800Z,64.2
2022-11-12T02:13:34.195Z,63.9
2022-11-12T02:19:09.799Z,63.6
2022-11-12T02:24:46.254Z,63.4
2022-11-12T02:30:21.886Z,63.7
2022-11-12T02:35:57.717Z,64
2022-11-12T02:41:32.850Z,64.1
2022-11-12T02:47:30.830Z,64
2022-11-12T02:53:05.023Z,64
2022-11-12T02:58:41.619Z,63.7
2022-11-12T03:04:17.564Z,63.7
2022-11-12T03:09:53.257Z,63.6
2022-11-12T03:15:28.184Z,63.6
2022-11-12T03:21:03.553Z,64.4
2022-11-12T03:26:38.744Z,64.8
2022-11-12T03:32:14.652Z,65.3
2022-11-12T03:37:57.826Z,65
2022-11-12T03:43:33.453Z,65.4
2022-11-12T03:49:30.749Z,64.7
2022-11-12T03:55:03.831Z,65
2022-11-12T04:00:39.105Z,64.9
2022-11-12T04:06:14.555Z,64.6
2022-11-12T04:11:50.136Z,63.7
2022-11-12T04:17:27.032Z,65.2
2022-11-12T04:23:05.947Z,64.4
2022-11-12T04:28:41.448Z,64.9
2022-11-12T04:34:16.807Z,65.3
2022-11-12T04:39:52.339Z,65.9
2022-11-12T04:45:28.017Z,66.1
2022-11-12T04:51:03.840Z,66.5
2022-11-12T04:56:38.637Z,66.2
2022-11-12T05:02:14.660Z,66.1
2022-11-12T05:07:51.154Z,66
2022-11-12T05:13:26.419Z,65.9
2022-11-12T05:19:01.892Z,65.9
2022-11-12T05:24:42.966Z,66.1
2022-11-12T05:30:18.055Z,66.2
2022-11-12T05:35:54.423Z,66.3
2022-11-12T05:42:11.710Z,66.4
2022-11-12T05:48:11.533Z,66.7
2022-11-12T05:53:45.760Z,67.2
2022-11-12T05:59:21.904Z,67.7
2022-11-12T06:04:57.320Z,67.9
2022-11-12T06:10:36.449Z,68.2
2022-11-12T06:16:11.832Z,68.1
2022-11-12T06:21:47.186Z,67.8
2022-11-12T06:27:24.696Z,68.1
2022-11-12T06:33:00.388Z,69.4
2022-11-12T06:38:37.269Z,72.4
2022-11-12T06:44:19.218Z,73.2
2022-11-12T06:49:57.850Z,72.8
2022-11-12T06:55:32.819Z,73.9
2022-11-12T07:01:12.719Z,75.6
2022-11-12T07:06:49.835Z,78.4
2022-11-12T07:12:25.734Z,76.4
2022-11-12T07:18:02.544Z,75.9
2022-11-12T07:23:38.036Z,74.7
2022-11-12T07:29:46.737Z,72
2022-11-12T07:35:24.338Z,74
2022-11-12T07:40:59.759Z,75
2022-11-12T07:46:34.725Z,76
2022-11-12T07:52:10.238Z,77
2022-11-12T07:57:45.854Z,76.2
2022-11-12T08:03:21.242Z,76.5
2022-11-12T08:08:56.594Z,78.6
2022-11-12T08:14:31.950Z,78.1
2022-11-12T08:20:11.934Z,76.5
2022-11-12T08:25:47.387Z,75.8
2022-11-12T08:31:22.980Z,74.9
2022-11-12T08:37:03.442Z,74.7
2022-11-12T08:42:39.212Z,74.1
2022-11-12T08:48:48.329Z,74.4
2022-11-12T08:54:21.445Z,74.8
2022-11-12T09:00:00.633Z,75.2
2022-11-12T09:05:37.752Z,74.1
2022-11-12T09:11:14.568Z,74.3
2022-11-12T09:16:49.860Z,74.1
2022-11-12T09:22:26.313Z,73.7
2022-11-12T09:28:01.254Z,73.8
2022-11-12T09:33:37.656Z,73.6
2022-11-12T09:39:13.024Z,73.6
2022-11-12T09:44:47.770Z,74.7
2022-11-12T09:50:23.744Z,73.6
2022-11-12T09:55:59.747Z,73.4
2022-11-12T10:01:35.426Z,73.4
2022-11-12T10:07:23.126Z,73.9
2022-11-12T10:12:58.425Z,74.6
2022-11-12T10:18:33.225Z,74.9
2022-11-12T10:24:10.019Z,76.4
2022-11-12T10:29:45.135Z,75.5
2022-11-12T10:35:19.913Z,74.1
2022-11-12T10:40:56.472Z,74.2
2022-11-12T10:46:53.453Z,73.9
2022-11-12T10:52:26.276Z,74.8
2022-11-12T10:58:01.780Z,73.9
2022-11-12T11:03:37.087Z,74.5
2022-11-12T11:09:12.011Z,74.4
2022-11-12T11:14:47.805Z,74.7
2022-11-12T11:20:24.107Z,75.5
2022-11-12T11:26:07.345Z,74.8
2022-11-12T11:31:43.124Z,74.5
2022-11-12T11:37:18.510Z,75
2022-11-12T11:42:54.736Z,75.8
2022-11-12T11:48:52.134Z,74.6
2022-11-12T11:54:25.382Z,74.2
2022-11-12T12:00:00.581Z,74.7
2022-11-12T12:05:36.613Z,74
2022-11-12T12:11:11.786Z,73.5
2022-11-12T12:16:49.119Z,73.2
2022-11-12T12:22:24.922Z,72.7
2022-11-12T12:28:00.653Z,71.3
2022-11-12T12:33:35.925Z,71.6
2022-11-12T12:39:12.211Z,71.1
2022-11-12T12:44:47.981Z,70.7
2022-11-12T12:50:23.174Z,70
2022-11-12T12:55:58.993Z,69.1
2022-11-12T13:01:34.375Z,68.5
2022-11-12T13:07:11.593Z,67.9
2022-11-12T13:12:47.769Z,66.9
2022-11-12T13:18:23.240Z,63.7
2022-11-12T13:23:59.099Z,60.6
2022-11-12T13:29:35.507Z,59.4
2022-11-12T13:35:10.567Z,57.4
2022-11-12T13:40:45.822Z,55.4
2022-11-12T13:46:43.608Z,54.7
2022-11-12T13:52:17.150Z,54.4
2022-11-12T13:57:53.442Z,55.1
2022-11-12T14:03:29.153Z,54
2022-11-12T14:09:04.485Z,53.8
2022-11-12T14:14:39.769Z,53.6
2022-11-12T14:20:16.184Z,53.1
2022-11-12T14:25:52.711Z,52.5
2022-11-12T14:31:28.310Z,51.8
2022-11-12T14:37:03.755Z,51.6
2022-11-12T14:42:39.111Z,52.9
2022-11-12T14:48:35.571Z,53.8
2022-11-12T14:54:09.262Z,51.5
2022-11-12T14:59:44.263Z,55.2
2022-11-12T15:05:21.267Z,56.9
2022-11-12T15:10:56.788Z,59.4
2022-11-12T15:16:32.203Z,57.8
2022-11-12T15:22:07.033Z,59.1
2022-11-12T15:27:42.298Z,61.9
2022-11-12T15:33:17.388Z,61.7
2022-11-12T15:38:53.127Z,63.1
2022-11-12T15:44:29.333Z,62.1
2022-11-12T15:50:04.702Z,64.1
2022-11-12T15:55:39.341Z,62.9
2022-11-12T16:01:15.560Z,61.8
2022-11-12T16:06:51.767Z,64
2022-11-12T16:12:27.848Z,66.4
2022-11-12T16:18:03.449Z,66.6
2022-11-12T16:23:39.053Z,67.4
2022-11-12T16:29:14.391Z,70.1
2022-11-12T16:34:49.761Z,69.9
2022-11-12T16:40:25.145Z,68.2
2022-11-12T16:46:00.164Z,67.2
2022-11-12T16:51:36.771Z,66.9
2022-11-12T16:57:12.157Z,69.9
2022-11-12T17:02:53.779Z,71.2
2022-11-12T17:08:34.354Z,71.4
2022-11-12T17:14:11.148Z,68.7
2022-11-12T17:19:46.537Z,68.2
2022-11-12T17:25:22.422Z,68.2
2022-11-12T17:30:57.858Z,68.5
2022-11-12T17:36:33.158Z,68.7
2022-11-12T17:42:19.952Z,69
2022-11-12T17:47:58.724Z,68.9
2022-11-12T17:53:37.067Z,68.7
2022-11-12T17:59:15.871Z,68.9
2022-11-12T18:04:50.945Z,69.1
2022-11-12T18:10:25.915Z,69.2
2022-11-12T18:16:01.319Z,69.2
2022-11-12T18:21:36.740Z,69.4
2022-11-12T18:27:11.981Z,69.9
2022-11-12T18:32:48.174Z,70.1
2022-11-12T18:38:23.752Z,70.6
2022-11-12T18:43:58.674Z,70.6
2022-11-12T18:49:34.001Z,70.6
2022-11-12T18:55:09.543Z,70.4
2022-11-12T19:00:44.919Z,70.2
2022-11-12T19:06:21.188Z,70.4
2022-11-12T19:11:57.801Z,70.7
2022-11-12T19:17:33.270Z,70.7
2022-11-12T19:23:08.833Z,70.8
2022-11-12T19:28:45.118Z,70.8
2022-11-12T19:34:20.982Z,70.8
2022-11-12T19:39:56.692Z,70.9
2022-11-12T19:45:33.052Z,71.2
2022-11-12T19:51:09.225Z,71.3
2022-11-12T19:56:44.685Z,71.5
2022-11-12T20:02:20.073Z,71.5
2022-11-12T20:07:55.321Z,71.8
2022-11-12T20:13:30.839Z,71.9
2022-11-12T20:19:06.171Z,71.6
2022-11-12T20:24:41.168Z,71.3
2022-11-12T20:30:16.673Z,71.3
2022-11-12T20:35:51.962Z,71.2
2022-11-12T20:41:26.845Z,71.3
2022-11-12T20:47:24.182Z,71.5
2022-11-12T20:52:57.103Z,71.5
2022-11-12T20:58:32.444Z,71.7
2022-11-12T21:04:08.014Z,71.7
2022-11-12T21:09:42.895Z,71.7
2022-11-12T21:15:18.066Z,71.4
2022-11-12T21:20:53.678Z,71.3
2022-11-12T21:26:29.293Z,71.8
2022-11-12T21:32:04.339Z,71.8
2022-11-12T21:37:40.376Z,71.6
2022-11-12T21:43:15.700Z,71.5
2022-11-12T21:49:12.407Z,71.2
2022-11-12T21:54:45.834Z,70.7
2022-11-12T22:00:42.683Z,70.9
2022-11-12T22:06:18.626Z,71.1
2022-11-12T22:11:55.416Z,71.2
2022-11-12T22:17:31.619Z,71.4
2022-11-12T22:23:06.844Z,71.4
2022-11-12T22:28:42.191Z,71.8
2022-11-12T22:34:18.320Z,71.9
2022-11-12T22:39:53.250Z,72.2
2022-11-12T22:45:28.632Z,72.1
2022-11-12T22:51:04.176Z,71.9
2022-11-12T22:56:40.407Z,71.7
2022-11-12T23:02:15.852Z,71.9
2022-11-12T23:07:51.445Z,71.6
2022-11-12T23:13:26.280Z,71.2
2022-11-12T23:19:01.620Z,71.3
2022-11-12T23:24:37.255Z,71.4
2022-11-12T23:30:12.672Z,71.6
2022-11-12T23:35:48.111Z,71.6
2022-11-12T23:41:23.345Z,71.5
2022-11-12T23:47:20.559Z,70.8
2022-11-12T23:52:54.869Z,70.5
2022-11-12T23:58:31.619Z,70.2
